createdAt,value
2018-07-07T00:01:50.852Z,1.43
2018-07-07T00:04:20.092Z,1.83
2018-07-07T00:06:49.365Z,2.40
2018-07-07T00:09:18.715Z,1.50
2018-07-07T00:11:47.498Z,1.63
2018-07-07T00:14:16.242Z,1.40
2018-07-07T00:16:45.619Z,1.60
2018-07-07T00:19:14.946Z,1.40
2018-07-07T00:21:44.215Z,2.10
2018-07-07T00:24:13.565Z,1.63
2018-07-07T00:26:42.854Z,1.27
2018-07-07T00:29:12.132Z,1.73
2018-07-07T00:31:41.497Z,1.47
2018-07-07T00:34:10.802Z,1.43
2018-07-07T00:36:39.550Z,1.80
2018-07-07T00:39:08.890Z,1.80
2018-07-07T00:41:37.620Z,3.07
2018-07-07T00:44:06.938Z,4.20
2018-07-07T00:46:36.285Z,3.80
2018-07-07T00:49:05.713Z,3.80
2018-07-07T00:51:35.215Z,4.73
2018-07-07T00:54:04.620Z,4.00
2018-07-07T00:56:33.897Z,3.33
2018-07-07T00:59:03.178Z,3.47
2018-07-07T01:01:32.568Z,3.03
2018-07-07T01:04:02.023Z,3.60
2018-07-07T01:06:31.609Z,3.00
2018-07-07T01:09:00.922Z,2.03
2018-07-07T01:11:30.427Z,2.73
2018-07-07T01:13:59.758Z,2.90
2018-07-07T01:16:29.120Z,2.77
2018-07-07T01:18:58.469Z,2.80
2018-07-07T01:21:27.768Z,2.60
2018-07-07T01:23:57.106Z,2.60
2018-07-07T01:26:25.920Z,2.37
2018-07-07T01:28:55.249Z,3.10
2018-07-07T01:31:24.581Z,3.17
2018-07-07T01:33:54.003Z,3.10
2018-07-07T01:36:22.733Z,6.17
2018-07-07T01:38:52.098Z,7.90
2018-07-07T01:41:21.419Z,8.20
2018-07-07T01:43:50.730Z,7.40
2018-07-07T01:46:20.037Z,8.77
2018-07-07T01:48:49.301Z,9.20
2018-07-07T01:51:18.053Z,8.50
2018-07-07T01:53:47.403Z,7.50
2018-07-07T01:56:16.687Z,7.40
2018-07-07T01:58:45.462Z,8.27
2018-07-07T02:01:14.960Z,7.70
2018-07-07T02:03:43.788Z,7.40
2018-07-07T02:06:13.089Z,6.80
2018-07-07T02:08:42.569Z,7.30
2018-07-07T02:11:11.344Z,6.50
2018-07-07T02:13:40.112Z,7.10
2018-07-07T02:16:09.488Z,7.13
2018-07-07T02:18:38.796Z,7.07
2018-07-07T02:21:07.651Z,6.93
2018-07-07T02:23:37.038Z,7.17
2018-07-07T02:26:06.458Z,6.90
2018-07-07T02:28:35.756Z,6.03
2018-07-07T02:31:05.135Z,6.10
2018-07-07T02:33:33.921Z,6.40
2018-07-07T02:36:02.683Z,5.63
2018-07-07T02:38:32.134Z,6.73
2018-07-07T02:41:01.455Z,7.40
2018-07-07T02:43:31.223Z,6.93
2018-07-07T02:46:00.109Z,6.40
2018-07-07T02:48:29.424Z,6.80
2018-07-07T02:50:58.741Z,6.23
2018-07-07T02:53:28.121Z,6.23
2018-07-07T02:55:56.941Z,4.97
2018-07-07T02:58:26.217Z,6.23
2018-07-07T03:00:55.008Z,6.33
2018-07-07T03:03:24.416Z,6.17
2018-07-07T03:05:53.858Z,5.07
2018-07-07T03:08:23.263Z,6.27
2018-07-07T03:10:52.542Z,5.53
2018-07-07T03:13:21.923Z,5.73
2018-07-07T03:15:51.262Z,7.17
2018-07-07T03:18:20.575Z,6.43
2018-07-07T03:20:49.891Z,6.77
2018-07-07T03:23:19.270Z,5.60
2018-07-07T03:25:48.713Z,7.10
2018-07-07T03:28:17.552Z,7.90
2018-07-07T03:30:46.926Z,6.17
2018-07-07T03:33:16.244Z,8.07
2018-07-07T03:35:45.531Z,6.27
2018-07-07T03:38:14.880Z,6.40
2018-07-07T03:40:44.184Z,6.50
2018-07-07T03:43:12.974Z,6.90
2018-07-07T03:45:42.389Z,6.47
2018-07-07T03:48:11.804Z,6.73
2018-07-07T03:50:42.169Z,6.20
2018-07-07T03:53:11.584Z,7.20
2018-07-07T03:55:41.043Z,7.10
2018-07-07T03:58:11.114Z,6.27
2018-07-07T04:00:40.540Z,6.97
2018-07-07T04:03:09.394Z,6.53
2018-07-07T04:05:38.733Z,6.60
2018-07-07T04:08:08.051Z,7.80
2018-07-07T04:10:37.370Z,8.90
2018-07-07T04:13:06.990Z,7.70
2018-07-07T04:15:36.399Z,9.83
2018-07-07T04:18:06.005Z,8.23
2018-07-07T04:20:35.354Z,8.97
2018-07-07T04:23:04.642Z,8.97
2018-07-07T04:25:33.930Z,9.00
2018-07-07T04:28:03.321Z,8.53
2018-07-07T04:30:32.626Z,9.40
2018-07-07T04:33:01.969Z,11.17
2018-07-07T04:35:30.775Z,9.77
2018-07-07T04:38:00.058Z,10.33
2018-07-07T04:40:28.981Z,10.27
2018-07-07T04:42:58.333Z,11.00
2018-07-07T04:45:27.648Z,10.40
2018-07-07T04:47:56.926Z,11.63
2018-07-07T04:50:26.238Z,11.07
2018-07-07T04:52:55.041Z,11.10
2018-07-07T04:55:23.761Z,12.63
2018-07-07T04:57:53.517Z,11.73
2018-07-07T05:00:22.813Z,11.70
2018-07-07T05:02:52.191Z,10.10
2018-07-07T05:05:21.604Z,10.53
2018-07-07T05:07:50.884Z,11.03
2018-07-07T05:10:20.493Z,9.97
2018-07-07T05:12:49.854Z,8.93
2018-07-07T05:15:19.280Z,10.53
2018-07-07T05:17:48.678Z,9.27
2018-07-07T05:20:18.451Z,10.37
2018-07-07T05:22:47.394Z,9.00
2018-07-07T05:25:16.861Z,8.53
2018-07-07T05:27:47.145Z,7.90
2018-07-07T05:30:16.525Z,6.83
2018-07-07T05:32:46.099Z,7.73
2018-07-07T05:35:16.673Z,6.60
2018-07-07T05:37:46.046Z,7.77
2018-07-07T05:40:15.396Z,6.43
2018-07-07T05:42:44.742Z,8.50
2018-07-07T05:45:14.062Z,6.80
2018-07-07T05:47:43.425Z,6.93
2018-07-07T05:50:12.700Z,7.67
2018-07-07T05:52:42.008Z,9.00
2018-07-07T05:55:11.281Z,7.13
2018-07-07T05:57:40.582Z,8.90
2018-07-07T06:00:10.011Z,7.30
2018-07-07T06:02:39.321Z,8.40
2018-07-07T06:05:08.047Z,7.70
2018-07-07T06:07:37.416Z,6.73
2018-07-07T06:10:06.192Z,6.27
2018-07-07T06:12:35.561Z,7.37
2018-07-07T06:15:05.422Z,5.43
2018-07-07T06:17:34.232Z,5.20
2018-07-07T06:20:03.654Z,5.60
2018-07-07T06:22:33.039Z,5.40
2018-07-07T06:25:02.372Z,6.10
2018-07-07T06:27:31.669Z,5.37
2018-07-07T06:30:01.015Z,5.03
2018-07-07T06:32:30.344Z,5.20
2018-07-07T06:34:59.688Z,5.50
2018-07-07T06:37:29.049Z,5.73
2018-07-07T06:39:58.336Z,5.17
2018-07-07T06:42:27.674Z,5.03
2018-07-07T06:44:57.075Z,4.93
2018-07-07T06:47:26.503Z,4.53
2018-07-07T06:49:55.335Z,3.83
2018-07-07T06:52:24.634Z,6.00
2018-07-07T06:54:53.976Z,5.20
2018-07-07T06:57:23.267Z,5.10
2018-07-07T06:59:52.525Z,5.40
2018-07-07T07:02:21.896Z,7.47
2018-07-07T07:04:51.301Z,7.33
2018-07-07T07:07:20.094Z,7.00
2018-07-07T07:09:49.013Z,7.37
2018-07-07T07:12:18.347Z,6.30
2018-07-07T07:14:47.715Z,7.87
2018-07-07T07:17:17.118Z,7.10
2018-07-07T07:19:46.557Z,7.80
2018-07-07T07:22:15.876Z,6.90
2018-07-07T07:24:45.325Z,6.80
2018-07-07T07:27:14.607Z,7.67
2018-07-07T07:29:43.989Z,8.10
2018-07-07T07:32:13.276Z,8.13
2018-07-07T07:34:42.549Z,7.60
2018-07-07T07:37:11.927Z,8.40
2018-07-07T07:39:41.887Z,9.87
2018-07-07T07:42:11.250Z,8.53
2018-07-07T07:44:40.683Z,10.70
2018-07-07T07:47:10.131Z,11.53
2018-07-07T07:49:39.441Z,11.70
2018-07-07T07:52:08.839Z,11.07
2018-07-07T07:54:37.609Z,11.93
2018-07-07T07:57:07.064Z,12.20
2018-07-07T07:59:36.468Z,12.80
2018-07-07T08:02:05.780Z,12.60
2018-07-07T08:04:35.159Z,11.60
2018-07-07T08:07:04.490Z,9.23
2018-07-07T08:09:33.786Z,8.80
2018-07-07T08:12:03.081Z,8.70
2018-07-07T08:14:32.731Z,8.97
2018-07-07T08:17:03.083Z,8.20
2018-07-07T08:19:32.419Z,8.90
2018-07-07T08:22:03.045Z,8.60
2018-07-07T08:24:32.411Z,8.57
2018-07-07T08:27:01.701Z,9.00
2018-07-07T08:29:31.008Z,8.40
2018-07-07T08:32:00.361Z,7.17
2018-07-07T08:34:29.714Z,6.60
2018-07-07T08:36:59.114Z,8.17
2018-07-07T08:39:28.456Z,7.67
2018-07-07T08:41:57.798Z,7.53
2018-07-07T08:44:27.214Z,9.00
2018-07-07T08:46:56.536Z,7.63
2018-07-07T08:49:26.633Z,7.87
2018-07-07T08:51:55.638Z,7.90
2018-07-07T08:54:24.924Z,9.33
2018-07-07T08:56:55.144Z,8.10
2018-07-07T08:59:24.607Z,6.30
2018-07-07T09:01:54.820Z,7.70
2018-07-07T09:04:24.198Z,6.93
2018-07-07T09:06:54.390Z,6.90
2018-07-07T09:09:26.498Z,7.33
2018-07-07T09:11:55.954Z,7.63
2018-07-07T09:16:38.316Z,6.90
2018-07-07T09:19:08.187Z,7.37
2018-07-07T09:21:37.516Z,7.63
2018-07-07T09:24:06.993Z,4.70
2018-07-07T09:26:36.336Z,7.60
2018-07-07T09:29:05.950Z,6.80
2018-07-07T09:31:35.224Z,7.03
2018-07-07T09:34:04.537Z,7.07
2018-07-07T09:36:33.898Z,6.70
2018-07-07T09:39:03.270Z,6.87
2018-07-07T09:41:32.569Z,7.30
2018-07-07T09:44:02.025Z,10.67
2018-07-07T09:46:31.783Z,10.90
2018-07-07T09:49:01.147Z,9.20
2018-07-07T09:51:30.528Z,8.90
2018-07-07T09:53:59.886Z,8.60
2018-07-07T09:56:29.278Z,7.80
2018-07-07T09:58:58.643Z,7.90
2018-07-07T10:01:28.005Z,7.93
2018-07-07T10:03:57.252Z,8.63
2018-07-07T10:06:26.754Z,6.53
2018-07-07T10:08:56.078Z,6.40
2018-07-07T10:11:25.311Z,5.53
2018-07-07T10:13:54.796Z,4.07
2018-07-07T10:16:24.169Z,4.83
2018-07-07T10:18:53.462Z,8.07
2018-07-07T10:21:22.951Z,6.20
2018-07-07T10:23:52.244Z,5.93
2018-07-07T10:26:21.622Z,5.27
2018-07-07T10:28:51.520Z,4.13
2018-07-07T10:31:20.858Z,3.50
2018-07-07T10:33:50.254Z,3.53
2018-07-07T10:36:19.066Z,3.10
2018-07-07T10:38:48.408Z,3.20
2018-07-07T10:41:17.675Z,4.20
2018-07-07T10:43:46.955Z,4.03
2018-07-07T10:46:16.308Z,4.53
2018-07-07T10:48:45.660Z,4.10
2018-07-07T10:51:14.929Z,5.00
2018-07-07T10:53:44.315Z,5.47
2018-07-07T10:56:13.620Z,4.33
2018-07-07T10:58:42.931Z,4.20
2018-07-07T11:01:12.268Z,4.03
2018-07-07T11:03:41.661Z,5.13
2018-07-07T11:06:11.075Z,4.53
2018-07-07T11:08:40.471Z,5.00
2018-07-07T11:11:09.957Z,5.73
2018-07-07T11:13:40.173Z,5.50
2018-07-07T11:16:09.611Z,5.47
2018-07-07T11:18:39.880Z,5.97
2018-07-07T11:21:09.393Z,5.40
2018-07-07T11:23:39.761Z,5.60
2018-07-07T11:26:08.671Z,4.83
2018-07-07T11:28:38.796Z,5.23
2018-07-07T11:31:08.180Z,8.50
2018-07-07T11:33:39.966Z,4.50
2018-07-07T11:36:09.306Z,4.57
2018-07-07T11:38:38.739Z,4.00
2018-07-07T11:41:08.306Z,3.80
2018-07-07T11:43:39.497Z,3.47
2018-07-07T11:46:08.885Z,3.07
2018-07-07T11:48:38.293Z,3.33
2018-07-07T11:51:07.751Z,3.00
2018-07-07T11:53:37.072Z,3.20
2018-07-07T11:56:07.535Z,2.83
2018-07-07T11:58:36.919Z,3.10
2018-07-07T12:01:06.200Z,3.10
2018-07-07T12:03:35.033Z,2.83
2018-07-07T12:06:04.397Z,3.13
2018-07-07T12:08:33.736Z,2.43
2018-07-07T12:11:03.047Z,3.10
2018-07-07T12:13:32.420Z,3.20
2018-07-07T12:16:02.551Z,2.67
2018-07-07T12:18:31.885Z,2.73
2018-07-07T12:21:01.273Z,3.43
2018-07-07T12:23:30.604Z,3.20
2018-07-07T12:25:59.382Z,3.27
2018-07-07T12:28:28.699Z,3.20
2018-07-07T12:30:57.508Z,2.27
2018-07-07T12:33:26.870Z,3.07
2018-07-07T12:35:56.241Z,2.87
2018-07-07T12:38:25.557Z,2.40
2018-07-07T12:40:55.264Z,2.93
2018-07-07T12:43:24.596Z,2.97
2018-07-07T12:45:53.380Z,2.93
2018-07-07T12:48:22.755Z,3.50
2018-07-07T12:50:52.109Z,2.70
2018-07-07T12:53:21.542Z,2.37
2018-07-07T12:55:50.966Z,2.60
2018-07-07T12:58:20.328Z,3.27
2018-07-07T13:00:49.676Z,2.90
2018-07-07T13:03:19.065Z,3.70
2018-07-07T13:05:48.440Z,2.60
2018-07-07T13:08:17.784Z,2.67
2018-07-07T13:10:47.121Z,2.87
2018-07-07T13:13:16.423Z,3.47
2018-07-07T13:15:45.714Z,3.33
2018-07-07T13:18:14.569Z,2.57
2018-07-07T13:20:43.883Z,3.00
2018-07-07T13:23:13.197Z,2.80
2018-07-07T13:25:42.107Z,3.30
2018-07-07T13:28:11.708Z,2.53
2018-07-07T13:30:41.071Z,3.00
2018-07-07T13:33:10.606Z,2.97
2018-07-07T13:35:39.961Z,3.27
2018-07-07T13:38:09.303Z,2.77
2018-07-07T13:40:38.795Z,2.63
2018-07-07T13:43:08.196Z,2.80
2018-07-07T13:45:37.579Z,2.73
2018-07-07T13:48:07.091Z,3.33
2018-07-07T13:50:36.338Z,3.10
2018-07-07T13:53:05.665Z,3.53
2018-07-07T13:55:35.046Z,3.00
2018-07-07T13:58:04.352Z,3.50
2018-07-07T14:00:33.686Z,3.37
2018-07-07T14:03:03.085Z,3.37
2018-07-07T14:05:32.378Z,3.20
2018-07-07T14:08:01.792Z,3.73
2018-07-07T14:10:31.131Z,3.27
2018-07-07T14:12:59.903Z,3.30
2018-07-07T14:15:29.239Z,3.57
2018-07-07T14:17:58.523Z,3.27
2018-07-07T14:20:27.803Z,3.47
2018-07-07T14:22:57.162Z,3.17
2018-07-07T14:25:26.422Z,3.27
2018-07-07T14:27:55.198Z,3.47
2018-07-07T14:30:24.059Z,3.13
2018-07-07T14:32:53.610Z,3.87
2018-07-07T14:35:23.426Z,3.13
2018-07-07T14:37:53.976Z,3.80
2018-07-07T14:40:23.710Z,2.90
2018-07-07T14:42:55.608Z,3.07
2018-07-07T14:45:29.907Z,3.83
2018-07-07T14:48:01.891Z,3.30
2018-07-07T14:50:31.433Z,3.33
2018-07-07T14:53:00.781Z,3.40
2018-07-07T14:55:30.480Z,3.30
2018-07-07T14:57:59.916Z,4.07
2018-07-07T15:00:29.702Z,3.27
2018-07-07T15:02:59.394Z,4.10
2018-07-07T15:05:28.721Z,3.70
2018-07-07T15:07:57.970Z,3.43
2018-07-07T15:10:27.333Z,2.87
2018-07-07T15:12:56.168Z,4.97
2018-07-07T15:15:25.607Z,4.90
2018-07-07T15:17:54.941Z,3.97
2018-07-07T15:20:24.332Z,4.13
2018-07-07T15:22:53.943Z,3.33
2018-07-07T15:25:23.338Z,3.00
2018-07-07T15:27:52.696Z,6.13
2018-07-07T15:30:21.991Z,4.60
2018-07-07T15:32:51.323Z,6.40
2018-07-07T15:35:20.746Z,3.57
2018-07-07T15:37:50.064Z,3.40
2018-07-07T15:40:19.433Z,3.60
2018-07-07T15:42:48.825Z,3.00
2018-07-07T15:45:18.172Z,4.77
2018-07-07T15:47:47.794Z,3.50
2018-07-07T15:50:17.549Z,3.50
2018-07-07T15:52:46.925Z,4.13
2018-07-07T15:55:16.240Z,3.90
2018-07-07T15:57:45.546Z,4.17
2018-07-07T16:00:14.887Z,3.63
2018-07-07T16:02:44.246Z,2.85
2018-07-07T16:05:13.639Z,2.63
2018-07-07T16:07:42.955Z,3.07
2018-07-07T16:10:12.389Z,2.97
2018-07-07T16:12:41.738Z,2.83
2018-07-07T16:15:11.016Z,3.10
2018-07-07T16:17:39.768Z,3.30
2018-07-07T16:20:09.120Z,3.43
2018-07-07T16:22:38.424Z,3.13
2018-07-07T16:25:07.771Z,2.97
2018-07-07T16:27:37.051Z,3.43
2018-07-07T16:30:06.502Z,2.73
2018-07-07T16:32:35.855Z,3.30
2018-07-07T16:35:05.284Z,2.80
2018-07-07T16:37:34.676Z,3.60
2018-07-07T16:40:03.967Z,3.20
2018-07-07T16:42:34.268Z,3.40
2018-07-07T16:45:04.736Z,3.43
2018-07-07T16:47:34.170Z,3.23
2018-07-07T16:50:03.723Z,3.30
2018-07-07T16:52:33.222Z,3.17
2018-07-07T16:55:02.916Z,2.77
2018-07-07T16:57:32.312Z,2.67
2018-07-07T17:00:01.822Z,3.20
2018-07-07T17:02:31.503Z,2.83
2018-07-07T17:05:01.031Z,3.03
2018-07-07T17:07:30.573Z,4.60
2018-07-07T17:10:00.003Z,3.17
2018-07-07T17:12:29.856Z,3.73
2018-07-07T17:14:59.593Z,5.27
2018-07-07T17:17:29.421Z,3.73
2018-07-07T17:19:58.325Z,3.23
2018-07-07T17:22:27.740Z,3.30
2018-07-07T17:24:57.944Z,3.20
2018-07-07T17:27:27.491Z,3.07
2018-07-07T17:29:58.463Z,3.10
2018-07-07T17:32:27.865Z,3.90
2018-07-07T17:34:58.339Z,4.47
2018-07-07T17:37:27.695Z,2.70
2018-07-07T17:39:57.250Z,2.83
2018-07-07T17:42:26.673Z,3.37
2018-07-07T17:44:56.366Z,2.83
2018-07-07T17:47:25.773Z,3.40
2018-07-07T17:49:55.327Z,4.00
2018-07-07T17:52:24.222Z,3.20
2018-07-07T17:54:53.055Z,3.30
2018-07-07T17:57:22.665Z,3.10
2018-07-07T17:59:53.125Z,3.43
2018-07-07T18:02:22.727Z,4.00
2018-07-07T18:04:52.222Z,3.33
2018-07-07T18:07:21.485Z,4.60
2018-07-07T18:09:50.886Z,3.63
2018-07-07T18:12:20.138Z,4.00
2018-07-07T18:14:49.449Z,3.90
2018-07-07T18:17:18.870Z,4.30
2018-07-07T18:19:48.246Z,4.60
2018-07-07T18:22:17.531Z,3.30
2018-07-07T18:24:46.859Z,3.90
2018-07-07T18:27:15.707Z,4.00
2018-07-07T18:29:45.503Z,4.00
2018-07-07T18:32:14.922Z,3.30
2018-07-07T18:34:44.206Z,3.80
2018-07-07T18:37:13.478Z,3.20
2018-07-07T18:39:42.871Z,3.00
2018-07-07T18:42:11.635Z,2.70
2018-07-07T18:44:41.155Z,4.10
2018-07-07T18:47:10.497Z,3.57
2018-07-07T18:49:39.926Z,3.20
2018-07-07T18:52:09.563Z,3.53
2018-07-07T18:54:38.977Z,3.50
2018-07-07T18:57:08.337Z,3.60
2018-07-07T18:59:38.136Z,4.07
2018-07-07T19:02:07.598Z,4.73
2018-07-07T19:04:36.984Z,3.50
2018-07-07T19:07:06.498Z,3.77
2018-07-07T19:09:35.245Z,4.17
2018-07-07T19:12:04.698Z,3.83
2018-07-07T19:14:34.100Z,4.90
2018-07-07T19:17:03.428Z,4.70
2018-07-07T19:19:32.766Z,4.20
2018-07-07T19:22:07.191Z,4.17
2018-07-07T19:24:41.581Z,4.87
2018-07-07T19:27:10.903Z,3.53
2018-07-07T19:29:40.317Z,3.80
2018-07-07T19:32:14.729Z,4.83
2018-07-07T19:34:49.173Z,4.90
2018-07-07T19:37:20.051Z,4.07
2018-07-07T19:39:49.416Z,5.20
2018-07-07T19:42:18.282Z,4.37
2018-07-07T19:44:47.746Z,5.07
2018-07-07T19:47:17.049Z,4.87
2018-07-07T19:49:46.458Z,7.40
2018-07-07T19:52:15.882Z,5.67
2018-07-07T19:54:45.358Z,4.40
2018-07-07T19:57:14.981Z,4.80
2018-07-07T19:59:44.758Z,5.23
2018-07-07T20:02:15.021Z,5.57
2018-07-07T20:04:44.689Z,5.20
2018-07-07T20:07:13.992Z,5.70
2018-07-07T20:09:43.473Z,5.20
2018-07-07T20:12:12.898Z,5.27
2018-07-07T20:14:42.229Z,10.83
2018-07-07T20:17:12.977Z,9.23
2018-07-07T20:20:58.575Z,6.70
2018-07-07T20:23:29.658Z,7.20
2018-07-07T20:26:04.014Z,6.40
2018-07-07T20:28:38.669Z,5.50
2018-07-07T20:31:08.061Z,4.70
2018-07-07T20:33:37.396Z,4.83
2018-07-07T20:36:06.311Z,3.90
2018-07-07T20:38:35.592Z,4.73
2018-07-07T20:41:04.991Z,4.23
2018-07-07T20:43:34.368Z,4.00
2018-07-07T20:46:03.647Z,4.47
2018-07-07T20:48:33.159Z,4.90
2018-07-07T20:51:02.453Z,4.00
2018-07-07T20:53:31.750Z,4.57
2018-07-07T20:56:01.113Z,5.00
2018-07-07T20:58:30.406Z,4.47
2018-07-07T21:00:59.780Z,4.50
2018-07-07T21:03:29.254Z,5.00
2018-07-07T21:05:58.576Z,4.70
2018-07-07T21:08:27.984Z,5.40
2018-07-07T21:10:57.342Z,4.73
2018-07-07T21:13:27.375Z,4.30
2018-07-07T21:15:56.741Z,5.17
2018-07-07T21:18:26.055Z,5.00
2018-07-07T21:20:55.425Z,4.70
2018-07-07T21:23:24.199Z,4.07
2018-07-07T21:25:53.588Z,4.10
2018-07-07T21:28:22.972Z,5.10
2018-07-07T21:30:52.296Z,4.60
2018-07-07T21:33:21.637Z,5.33
2018-07-07T21:35:51.043Z,4.07
2018-07-07T21:38:20.369Z,4.50
2018-07-07T21:40:49.703Z,5.00
2018-07-07T21:43:19.067Z,4.63
2018-07-07T21:45:48.485Z,4.93
2018-07-07T21:48:17.865Z,4.00
2018-07-07T21:50:47.226Z,3.90
2018-07-07T21:53:15.997Z,4.97
2018-07-07T21:55:45.535Z,4.60
2018-07-07T21:58:20.080Z,3.70
2018-07-07T22:01:05.492Z,3.93
2018-07-07T22:03:39.929Z,3.80
2018-07-07T22:06:11.726Z,2.90
2018-07-07T22:08:41.086Z,3.20
2018-07-07T22:11:10.422Z,3.03
2018-07-07T22:13:39.786Z,3.60
2018-07-07T22:16:09.145Z,3.43
2018-07-07T22:18:38.472Z,2.93
2018-07-07T22:21:18.633Z,4.40
2018-07-07T22:23:47.934Z,5.30
2018-07-07T22:26:17.309Z,5.47
2018-07-07T22:28:46.848Z,4.73
2018-07-07T22:31:16.223Z,5.67
2018-07-07T22:33:45.603Z,5.20
2018-07-07T22:36:20.132Z,4.60
2018-07-07T22:38:54.653Z,5.20
2018-07-07T22:41:33.643Z,6.20
2018-07-07T22:44:02.495Z,5.30
2018-07-07T22:46:31.772Z,5.27
2018-07-07T22:49:01.087Z,5.97
2018-07-07T22:51:30.479Z,5.53
2018-07-07T22:53:59.789Z,5.40
2018-07-07T22:56:29.093Z,4.90
2018-07-07T22:58:58.723Z,5.37
2018-07-07T23:01:28.076Z,5.20
2018-07-07T23:03:57.461Z,4.80
2018-07-07T23:06:26.874Z,5.27
2018-07-07T23:08:56.206Z,6.10
2018-07-07T23:11:25.525Z,5.77
2018-07-07T23:13:55.047Z,5.30
2018-07-07T23:16:23.824Z,4.80
2018-07-07T23:18:53.428Z,4.57
2018-07-07T23:21:22.885Z,4.27
2018-07-07T23:23:52.263Z,4.77
2018-07-07T23:26:21.595Z,4.97
2018-07-07T23:28:51.121Z,4.57
2018-07-07T23:31:20.490Z,4.40
2018-07-07T23:33:50.235Z,4.80
2018-07-07T23:36:19.557Z,5.10
2018-07-07T23:38:48.958Z,3.97
2018-07-07T23:41:18.366Z,4.30
2018-07-07T23:43:47.742Z,5.00
2018-07-07T23:46:17.109Z,4.70
2018-07-07T23:48:46.471Z,4.43
2018-07-07T23:51:15.982Z,3.70
2018-07-07T23:53:44.749Z,4.70
2018-07-07T23:56:14.113Z,5.00
2018-07-07T23:58:43.463Z,3.93
